Red Town, Illinois
Current Conditions -  °F | °C
As of 4:28 AM on Sunday 26 Oct 2014 (Local Time) from KMDH Reporting Station
Haze Haze  
Wind Chill: 48°   Ceiling: Unl
Heat Index: 48°   Visibility: 1.7mi
Dew Point: 46°   Wind: 0mph
Humidity: 93%   Direction: NA
Pressure: 30.01"   Gusts: NA
Location:  37.6428°N, 89.4674°W
Report Text: KMDH 260928Z AUTO 00000KT 1 3/4SM BR CLR 09/08 A3001 RMK AO2 T00890078
Loading
Personal Weather Stations






























Interactive Weather Map
Tropical Storm Tracking
New forecast layout! Learn more

10-Day Weather Forecast

Advertisements
Track Severe Weather on mobile